createdAt,value
2022-08-03T00:02:19.907Z,21.78
2022-08-03T00:04:48.570Z,21.76
2022-08-03T00:07:18.761Z,21.75
2022-08-03T00:09:47.207Z,21.79
2022-08-03T00:12:15.860Z,21.79
2022-08-03T00:14:44.785Z,21.71
2022-08-03T00:17:13.146Z,21.64
2022-08-03T00:19:41.567Z,21.68
2022-08-03T00:22:10.119Z,21.66
2022-08-03T00:24:40.006Z,21.50
2022-08-03T00:27:08.452Z,21.55
2022-08-03T00:30:00.017Z,21.54
2022-08-03T00:32:25.620Z,21.52
2022-08-03T00:34:57.842Z,21.42
2022-08-03T00:37:41.423Z,21.37
2022-08-03T00:40:14.382Z,21.34
2022-08-03T00:42:51.017Z,21.31
2022-08-03T00:45:19.959Z,21.25
2022-08-03T00:47:48.816Z,21.16
2022-08-03T00:50:18.424Z,21.09
2022-08-03T00:52:47.952Z,20.99
2022-08-03T00:55:18.128Z,21.03
2022-08-03T00:57:47.694Z,20.98
2022-08-03T01:00:19.270Z,20.93
2022-08-03T01:02:47.799Z,20.92
2022-08-03T01:05:16.763Z,20.89
2022-08-03T01:08:01.789Z,20.85
2022-08-03T01:10:41.230Z,20.84
2022-08-03T01:14:00.314Z,20.77
2022-08-03T01:16:22.007Z,20.72
2022-08-03T01:19:20.524Z,20.65
2022-08-03T01:22:03.154Z,20.66
2022-08-03T01:24:44.936Z,20.58
2022-08-03T01:27:19.514Z,20.56
2022-08-03T01:30:03.793Z,20.58
2022-08-03T01:32:58.533Z,20.54
2022-08-03T01:35:38.799Z,20.43
2022-08-03T01:38:13.497Z,20.46
2022-08-03T01:40:45.028Z,20.52
2022-08-03T01:44:28.057Z,20.56
2022-08-03T01:46:09.306Z,20.52
2022-08-03T01:48:39.024Z,20.54
2022-08-03T01:51:10.271Z,20.54
2022-08-03T01:53:39.710Z,20.58
2022-08-03T01:56:08.999Z,20.61
2022-08-03T01:58:38.537Z,20.65
2022-08-03T02:01:10.666Z,20.63
2022-08-03T02:04:00.772Z,20.66
2022-08-03T02:07:00.008Z,20.69
2022-08-03T02:09:22.921Z,20.81
2022-08-03T02:11:53.522Z,20.83
2022-08-03T02:14:23.571Z,20.95
2022-08-03T02:16:54.286Z,21.06
2022-08-03T02:19:24.664Z,21.13
2022-08-03T02:21:57.042Z,21.19
2022-08-03T02:24:30.146Z,21.27
2022-08-03T02:27:00.263Z,21.29
2022-08-03T02:29:40.243Z,21.46
2022-08-03T02:32:14.110Z,21.58
2022-08-03T02:34:46.642Z,21.62
2022-08-03T02:37:16.413Z,21.72
2022-08-03T02:39:46.163Z,21.70
2022-08-03T02:42:17.951Z,21.82
2022-08-03T02:44:51.488Z,21.93
2022-08-03T02:47:22.743Z,22.01
2022-08-03T02:49:53.972Z,22.07
2022-08-03T02:52:24.491Z,22.18
2022-08-03T02:54:56.548Z,22.29
2022-08-03T02:57:26.898Z,22.28
2022-08-03T02:59:56.858Z,22.42
2022-08-03T03:02:27.043Z,22.57
2022-08-03T03:05:53.052Z,22.67
2022-08-03T03:07:53.043Z,22.70
2022-08-03T03:10:23.845Z,22.84
2022-08-03T03:12:53.834Z,22.96
2022-08-03T03:15:22.543Z,22.98
2022-08-03T03:17:54.840Z,23.06
2022-08-03T03:20:29.861Z,23.09
2022-08-03T03:23:01.374Z,23.12
2022-08-03T03:25:32.238Z,23.27
2022-08-03T03:28:01.409Z,23.27
2022-08-03T03:30:31.300Z,23.41
2022-08-03T03:33:01.173Z,23.49
2022-08-03T03:35:30.035Z,23.50
2022-08-03T03:37:58.711Z,23.70
2022-08-03T03:40:27.783Z,23.74
2022-08-03T03:42:56.432Z,23.78
2022-08-03T03:45:25.775Z,23.82
2022-08-03T03:47:54.476Z,23.83
2022-08-03T03:50:25.406Z,23.88
2022-08-03T03:52:53.765Z,23.87
2022-08-03T03:55:22.268Z,24.06
2022-08-03T03:57:50.653Z,24.17
2022-08-03T04:00:20.445Z,24.29
2022-08-03T04:02:49.128Z,24.41
2022-08-03T04:05:34.720Z,24.55
2022-08-03T04:08:27.664Z,24.61
2022-08-03T04:11:04.323Z,24.84
2022-08-03T04:13:35.767Z,24.88
2022-08-03T04:16:05.779Z,24.98
2022-08-03T04:18:37.056Z,25.04
2022-08-03T04:21:09.956Z,25.19
2022-08-03T04:23:42.950Z,25.30
2022-08-03T04:26:14.964Z,25.42
2022-08-03T04:28:46.645Z,25.50
2022-08-03T04:31:16.383Z,25.60
2022-08-03T04:33:46.670Z,25.73
2022-08-03T04:36:19.067Z,25.69
2022-08-03T04:38:56.985Z,25.83
2022-08-03T04:41:27.777Z,25.99
2022-08-03T04:43:57.963Z,26.13
2022-08-03T04:46:29.912Z,26.24
2022-08-03T04:48:58.986Z,26.36
2022-08-03T04:51:27.912Z,26.41
2022-08-03T04:53:57.950Z,26.40
2022-08-03T04:56:26.230Z,26.60
2022-08-03T04:58:55.635Z,26.61
2022-08-03T05:01:24.234Z,26.66
2022-08-03T05:03:52.861Z,26.75
2022-08-03T05:06:21.257Z,26.78
2022-08-03T05:08:53.840Z,26.87
2022-08-03T05:11:23.733Z,27.01
2022-08-03T05:13:52.257Z,27.15
2022-08-03T05:16:20.672Z,27.25
2022-08-03T05:18:49.579Z,27.35
2022-08-03T05:21:18.026Z,27.39
2022-08-03T05:23:46.667Z,27.44
2022-08-03T05:26:15.368Z,27.46
2022-08-03T05:28:49.921Z,27.53
2022-08-03T05:31:20.806Z,27.64
2022-08-03T05:39:33.288Z,27.67
2022-08-03T05:42:31.253Z,27.84
2022-08-03T05:45:18.482Z,27.92
2022-08-03T05:54:18.177Z,27.79
2022-08-03T05:56:57.437Z,28.05
2022-08-03T05:59:38.879Z,28.02
2022-08-03T06:04:47.080Z,28.33
2022-08-03T06:07:18.537Z,28.42
2022-08-03T06:10:37.242Z,28.03
2022-08-03T06:12:57.153Z,28.74
2022-08-03T06:15:28.967Z,28.71
2022-08-03T06:18:01.988Z,28.80
2022-08-03T06:20:31.488Z,28.85
2022-08-03T06:23:54.660Z,28.97
2022-08-03T06:25:57.598Z,28.84
2022-08-03T06:31:18.202Z,28.94
2022-08-03T06:34:33.360Z,28.83
2022-08-03T06:36:38.934Z,29.08
2022-08-03T06:39:08.377Z,29.19
2022-08-03T06:41:37.527Z,29.26
2022-08-03T06:44:07.355Z,29.27
2022-08-03T06:46:36.482Z,29.16
2022-08-03T06:49:06.501Z,29.34
2022-08-03T06:52:03.051Z,29.16
2022-08-03T06:54:26.034Z,29.53
2022-08-03T06:56:55.829Z,29.62
2022-08-03T07:00:06.603Z,29.86
2022-08-03T07:02:12.717Z,30.02
2022-08-03T07:04:49.354Z,29.87
2022-08-03T07:07:19.639Z,29.85
2022-08-03T07:09:56.768Z,29.90
2022-08-03T07:12:28.132Z,30.11
2022-08-03T07:15:00.907Z,30.17
2022-08-03T07:17:34.840Z,30.25
2022-08-03T07:20:07.120Z,30.34
2022-08-03T07:22:36.147Z,30.33
2022-08-03T07:25:05.389Z,30.38
2022-08-03T07:27:34.228Z,30.62
2022-08-03T07:30:03.073Z,30.62
2022-08-03T07:32:32.549Z,30.82
2022-08-03T07:35:01.771Z,31.09
2022-08-03T07:37:34.724Z,31.17
2022-08-03T07:40:05.583Z,31.04
2022-08-03T07:42:34.666Z,31.11
2022-08-03T07:45:03.311Z,31.35
2022-08-03T07:47:35.718Z,31.09
2022-08-03T07:50:08.601Z,31.44
2022-08-03T07:52:52.226Z,31.69
2022-08-03T07:55:22.454Z,32.06
2022-08-03T07:58:05.163Z,32.33
2022-08-03T08:00:34.182Z,32.45
2022-08-03T08:03:02.845Z,32.47
2022-08-03T08:05:31.841Z,32.81
2022-08-03T08:08:01.901Z,32.66
2022-08-03T08:10:31.302Z,32.59
2022-08-03T08:13:00.161Z,32.80
2022-08-03T08:15:29.286Z,32.90
2022-08-03T08:17:59.384Z,33.00
2022-08-03T08:20:31.496Z,32.96
2022-08-03T08:23:03.500Z,32.96
2022-08-03T08:25:37.616Z,33.01
2022-08-03T08:28:29.506Z,33.09
2022-08-03T08:30:55.129Z,33.43
2022-08-03T08:33:24.117Z,33.74
2022-08-03T08:35:55.026Z,33.97
2022-08-03T08:38:25.400Z,33.87
2022-08-03T08:40:57.104Z,33.88
2022-08-03T08:43:25.786Z,33.89
2022-08-03T08:45:55.931Z,33.87
2022-08-03T08:48:27.247Z,34.27
2022-08-03T08:50:56.965Z,34.25
2022-08-03T08:53:30.379Z,34.08
2022-08-03T08:56:03.686Z,34.07
2022-08-03T08:58:39.005Z,34.23
2022-08-03T09:01:07.619Z,34.58
2022-08-03T09:03:36.201Z,34.46
2022-08-03T09:06:05.609Z,34.66
2022-08-03T09:08:36.063Z,34.49
2022-08-03T09:11:04.983Z,34.55
2022-08-03T09:13:35.215Z,34.41
2022-08-03T09:16:15.471Z,34.41
2022-08-03T09:18:45.158Z,34.21
2022-08-03T09:21:35.728Z,34.09
2022-08-03T09:24:16.454Z,33.51
2022-08-03T09:26:54.356Z,33.21
2022-08-03T09:29:24.077Z,33.15
2022-08-03T09:32:03.147Z,33.15
2022-08-03T09:34:32.284Z,33.08
2022-08-03T09:37:01.261Z,33.06
2022-08-03T09:39:40.612Z,33.05
2022-08-03T09:42:14.743Z,32.96
2022-08-03T09:44:45.708Z,32.89
2022-08-03T09:47:16.207Z,32.99
2022-08-03T09:49:58.926Z,33.00
2022-08-03T09:52:49.661Z,32.78
2022-08-03T09:56:32.994Z,32.92
2022-08-03T09:58:47.295Z,32.85
2022-08-03T10:01:25.396Z,32.94
2022-08-03T10:04:04.235Z,33.04
2022-08-03T10:06:33.553Z,33.32
2022-08-03T10:09:11.400Z,33.65
2022-08-03T10:11:42.825Z,34.12
2022-08-03T10:14:19.298Z,34.43
2022-08-03T10:16:49.886Z,35.06
2022-08-03T10:19:18.700Z,36.02
2022-08-03T10:21:51.245Z,36.49
2022-08-03T10:24:25.949Z,36.13
2022-08-03T10:27:02.945Z,36.35
2022-08-03T10:29:36.340Z,35.89
2022-08-03T10:32:10.681Z,35.76
2022-08-03T10:34:44.682Z,35.59
2022-08-03T10:37:16.491Z,35.42
2022-08-03T10:39:54.732Z,35.26
2022-08-03T10:42:27.613Z,35.04
2022-08-03T10:45:06.098Z,34.91
2022-08-03T10:47:36.711Z,34.74
2022-08-03T10:50:06.615Z,34.87
2022-08-03T10:52:41.021Z,35.77
2022-08-03T10:55:49.384Z,37.60
2022-08-03T10:58:57.077Z,39.80
2022-08-03T11:01:59.061Z,41.62
2022-08-03T11:04:30.709Z,43.12
2022-08-03T11:07:23.182Z,44.45
2022-08-03T11:09:53.356Z,45.21
2022-08-03T11:12:30.314Z,45.81
2022-08-03T11:15:04.361Z,46.15
2022-08-03T11:17:46.925Z,46.75
2022-08-03T11:20:50.958Z,46.42
2022-08-03T11:24:02.127Z,45.96
2022-08-03T11:26:15.830Z,46.12
2022-08-03T11:28:46.465Z,46.61
2022-08-03T11:31:51.698Z,47.22
2022-08-03T11:34:20.754Z,46.88
2022-08-03T11:37:22.328Z,46.68
2022-08-03T11:39:54.935Z,47.16
2022-08-03T11:42:48.334Z,47.30
2022-08-03T11:45:20.028Z,46.53
2022-08-03T11:47:55.223Z,46.83
2022-08-03T11:50:24.640Z,45.74
2022-08-03T11:52:53.652Z,44.40
2022-08-03T11:55:22.457Z,44.30
2022-08-03T11:59:00.774Z,44.95
2022-08-03T12:00:40.561Z,45.62
2022-08-03T12:03:13.937Z,45.38
2022-08-03T12:05:51.932Z,44.23
2022-08-03T12:08:34.483Z,43.25
2022-08-03T12:11:06.862Z,42.57
2022-08-03T12:14:45.074Z,42.08
2022-08-03T12:16:29.178Z,41.86
2022-08-03T12:19:01.191Z,41.89
2022-08-03T12:21:30.590Z,41.58
2022-08-03T12:24:00.680Z,40.99
2022-08-03T12:26:30.668Z,40.47
2022-08-03T12:28:59.692Z,40.81
2022-08-03T12:31:28.084Z,42.08
2022-08-03T12:34:00.035Z,43.15
2022-08-03T12:36:29.217Z,43.51
2022-08-03T12:38:59.567Z,44.01
2022-08-03T12:41:34.049Z,44.44
2022-08-03T12:44:04.533Z,44.91
2022-08-03T12:46:34.787Z,45.59
2022-08-03T12:49:15.668Z,45.86
2022-08-03T12:52:01.728Z,46.40
2022-08-03T12:54:36.230Z,46.47
2022-08-03T12:57:06.519Z,46.20
2022-08-03T12:59:41.175Z,45.48
2022-08-03T13:02:17.909Z,44.23
2022-08-03T13:04:51.221Z,43.88
2022-08-03T13:07:21.399Z,43.92
2022-08-03T13:09:53.161Z,43.40
2022-08-03T13:12:23.349Z,43.42
2022-08-03T13:14:54.559Z,43.51
2022-08-03T13:17:23.185Z,43.39
2022-08-03T13:19:53.605Z,43.05
2022-08-03T13:22:24.879Z,42.84
2022-08-03T13:24:56.201Z,42.53
2022-08-03T13:28:03.317Z,41.91
2022-08-03T13:30:22.708Z,41.26
2022-08-03T13:33:00.640Z,41.34
2022-08-03T13:35:30.667Z,41.49
2022-08-03T13:37:59.290Z,42.36
2022-08-03T13:40:30.237Z,43.36
2022-08-03T13:42:59.088Z,43.44
2022-08-03T13:45:27.981Z,42.70
2022-08-03T13:47:56.852Z,41.88
2022-08-03T13:50:25.319Z,41.61
2022-08-03T13:52:55.517Z,40.99
2022-08-03T13:55:24.026Z,40.61
2022-08-03T13:58:06.701Z,40.27
2022-08-03T14:00:35.845Z,40.36
2022-08-03T14:03:12.594Z,41.32
2022-08-03T14:05:42.123Z,42.26
2022-08-03T14:08:13.290Z,42.72
2022-08-03T14:10:43.622Z,43.13
2022-08-03T14:13:16.867Z,43.02
2022-08-03T14:15:49.463Z,43.33
2022-08-03T14:18:28.322Z,43.88
2022-08-03T14:21:06.614Z,44.49
2022-08-03T14:23:38.838Z,45.09
2022-08-03T14:26:07.852Z,45.47
2022-08-03T14:28:36.941Z,45.93
2022-08-03T14:31:08.318Z,46.15
2022-08-03T14:33:50.340Z,46.07
2022-08-03T14:36:18.876Z,46.00
2022-08-03T14:38:50.273Z,45.47
2022-08-03T14:41:20.859Z,44.22
2022-08-03T14:44:02.145Z,42.81
2022-08-03T14:46:31.995Z,41.51
2022-08-03T14:50:33.448Z,40.47
2022-08-03T14:51:51.249Z,39.37
2022-08-03T14:54:24.015Z,38.47
2022-08-03T14:56:52.595Z,37.94
2022-08-03T14:59:21.561Z,37.21
2022-08-03T15:02:03.397Z,36.61
2022-08-03T15:04:35.091Z,35.94
2022-08-03T15:07:03.954Z,35.28
2022-08-03T15:09:34.228Z,34.82
2022-08-03T15:12:02.845Z,34.70
2022-08-03T15:14:33.205Z,34.39
2022-08-03T15:17:03.332Z,33.95
2022-08-03T15:20:02.235Z,33.71
2022-08-03T15:22:25.464Z,33.45
2022-08-03T15:26:28.198Z,33.30
2022-08-03T15:28:03.320Z,33.11
2022-08-03T15:30:36.142Z,32.94
2022-08-03T15:33:04.817Z,32.77
2022-08-03T15:35:33.581Z,32.58
2022-08-03T15:38:06.062Z,32.37
2022-08-03T15:40:39.306Z,32.28
2022-08-03T15:43:08.145Z,32.07
2022-08-03T15:45:37.571Z,31.87
2022-08-03T15:48:06.791Z,31.66
2022-08-03T15:50:35.469Z,31.43
2022-08-03T15:53:04.492Z,31.27
2022-08-03T15:55:33.499Z,31.10
2022-08-03T15:59:10.982Z,30.88
2022-08-03T16:00:52.006Z,30.65
2022-08-03T16:03:20.515Z,30.64
2022-08-03T16:05:49.101Z,30.46
2022-08-03T16:08:17.899Z,30.31
2022-08-03T16:10:48.069Z,30.19
2022-08-03T16:13:18.708Z,29.99
2022-08-03T16:15:47.263Z,29.87
2022-08-03T16:18:16.000Z,29.76
2022-08-03T16:20:44.951Z,29.64
2022-08-03T16:23:14.901Z,29.53
2022-08-03T16:25:49.372Z,29.43
2022-08-03T16:28:20.499Z,29.29
2022-08-03T16:30:49.479Z,29.14
2022-08-03T16:33:18.229Z,29.17
2022-08-03T16:35:47.289Z,29.16
2022-08-03T16:38:19.135Z,29.05
2022-08-03T16:40:52.112Z,28.87
2022-08-03T16:43:24.868Z,28.79
2022-08-03T16:45:53.699Z,28.73
2022-08-03T16:48:22.083Z,28.58
2022-08-03T16:50:50.820Z,28.47
2022-08-03T16:53:51.553Z,28.30
2022-08-03T16:56:10.551Z,28.28
2022-08-03T16:58:44.276Z,28.02
2022-08-03T17:01:22.626Z,28.05
2022-08-03T17:04:03.674Z,27.93
2022-08-03T17:06:35.977Z,27.72
2022-08-03T17:09:08.739Z,27.68
2022-08-03T17:11:46.787Z,27.48
2022-08-03T17:14:21.993Z,27.44
2022-08-03T17:16:54.144Z,27.35
2022-08-03T17:19:25.347Z,27.11
2022-08-03T17:22:04.599Z,27.04
2022-08-03T17:24:40.853Z,27.04
2022-08-03T17:28:42.128Z,26.80
2022-08-03T17:30:09.071Z,26.83
2022-08-03T17:32:42.593Z,26.71
2022-08-03T17:35:11.998Z,26.69
2022-08-03T17:37:58.556Z,26.52
2022-08-03T17:40:32.052Z,26.56
2022-08-03T17:43:02.329Z,26.57
2022-08-03T17:45:54.734Z,26.50
2022-08-03T17:48:25.198Z,26.47
2022-08-03T17:51:00.584Z,25.98
2022-08-03T17:53:33.588Z,26.28
2022-08-03T17:56:44.913Z,26.38
2022-08-03T17:59:09.258Z,26.29
2022-08-03T18:02:11.584Z,26.30
2022-08-03T18:04:55.539Z,26.21
2022-08-03T18:07:41.171Z,26.23
2022-08-03T18:10:11.359Z,25.87
2022-08-03T18:12:51.757Z,26.22
2022-08-03T18:15:26.653Z,26.17
2022-08-03T18:18:04.173Z,26.19
2022-08-03T18:20:42.641Z,26.26
2022-08-03T18:23:24.909Z,26.26
2022-08-03T18:26:07.169Z,26.27
2022-08-03T18:28:39.821Z,26.13
2022-08-03T18:31:11.974Z,26.28
2022-08-03T18:34:20.330Z,26.29
2022-08-03T18:36:37.669Z,26.28
2022-08-03T18:39:07.430Z,26.18
2022-08-03T18:41:36.701Z,26.20
2022-08-03T18:44:09.472Z,26.18
2022-08-03T18:47:16.511Z,26.13
2022-08-03T18:50:00.620Z,26.07
2022-08-03T18:52:37.533Z,25.99
2022-08-03T18:55:20.862Z,25.97
2022-08-03T18:58:01.131Z,25.89
2022-08-03T19:00:54.053Z,25.69
2022-08-03T19:03:43.269Z,25.72
2022-08-03T19:06:20.794Z,25.61
2022-08-03T19:08:55.796Z,25.54
2022-08-03T19:12:14.281Z,25.43
2022-08-03T19:14:41.592Z,25.25
2022-08-03T19:20:36.679Z,24.84
2022-08-03T19:23:08.333Z,24.89
2022-08-03T19:25:41.437Z,24.77
2022-08-03T19:28:11.418Z,24.65
2022-08-03T19:30:46.190Z,24.58
2022-08-03T19:33:22.710Z,24.49
2022-08-03T19:35:56.914Z,24.40
2022-08-03T19:38:29.849Z,23.67
2022-08-03T19:41:02.659Z,24.19
2022-08-03T19:49:18.466Z,24.07
2022-08-03T19:52:01.828Z,24.01
2022-08-03T19:54:52.779Z,23.71
2022-08-03T19:57:26.832Z,23.92
2022-08-03T19:59:57.709Z,23.83
2022-08-03T20:05:04.815Z,23.73
2022-08-03T20:10:38.784Z,23.67
2022-08-03T20:30:10.407Z,23.28
2022-08-03T20:52:08.839Z,22.96
2022-08-03T21:12:21.008Z,22.70
2022-08-03T21:13:10.447Z,24.15
2022-08-03T21:17:50.458Z,22.46
2022-08-03T21:20:28.741Z,22.61
2022-08-03T21:23:40.008Z,22.69
2022-08-03T21:28:46.000Z,22.31
2022-08-03T21:31:27.118Z,22.39
2022-08-03T21:34:04.820Z,22.37
2022-08-03T21:39:23.442Z,22.45
2022-08-03T21:41:55.337Z,22.37
2022-08-03T21:44:29.067Z,22.34
2022-08-03T21:47:01.231Z,22.30
2022-08-03T21:50:05.405Z,22.25
2022-08-03T21:52:27.668Z,22.37
2022-08-03T21:55:00.141Z,22.30
2022-08-03T21:57:37.670Z,22.34
2022-08-03T22:00:10.913Z,22.43
2022-08-03T22:02:44.214Z,22.25
2022-08-03T22:05:42.573Z,22.33
2022-08-03T22:08:16.057Z,22.18
2022-08-03T22:10:48.628Z,22.09
2022-08-03T22:13:43.754Z,22.27
2022-08-03T22:16:13.565Z,22.22
2022-08-03T22:18:46.655Z,22.19
2022-08-03T22:24:08.129Z,22.32
2022-08-03T22:26:38.929Z,22.27
2022-08-03T22:29:12.095Z,22.29
2022-08-03T22:34:15.579Z,22.07
2022-08-03T22:36:44.945Z,22.36
2022-08-03T22:39:26.684Z,22.36
2022-08-03T22:41:59.023Z,22.33
2022-08-03T22:44:31.203Z,22.31
2022-08-03T22:47:04.097Z,22.30
2022-08-03T22:49:34.552Z,22.28
2022-08-03T22:52:05.877Z,22.20
2022-08-03T22:54:36.317Z,22.24
2022-08-03T22:57:09.486Z,22.20
2022-08-03T22:59:42.091Z,22.24
2022-08-03T23:02:20.600Z,22.20
2022-08-03T23:04:54.741Z,22.00
2022-08-03T23:07:31.395Z,22.16
2022-08-03T23:10:03.732Z,22.11
2022-08-03T23:18:08.455Z,22.00
2022-08-03T23:20:50.306Z,21.99
2022-08-03T23:23:21.904Z,21.99
2022-08-03T23:25:53.649Z,21.83
2022-08-03T23:28:27.187Z,21.92
2022-08-03T23:33:43.296Z,21.87
2022-08-03T23:39:05.188Z,21.78
2022-08-03T23:44:17.193Z,21.83
2022-08-03T23:52:50.912Z,21.84
